American Falls, Idaho
Current Conditions -  °F | °C
As of 2:53 AM on Saturday 22 Nov 2014 (Local Time) from KPIH Reporting Station
Overcast Overcast  
Wind Chill: 33°   Ceiling: 7000
Heat Index: 41°   Visibility: 10mi
Dew Point: 26°   Wind: 16mph
Humidity: 55%   Direction: 210°SSW
Pressure: 29.87"   Gusts: 25mph
Location:  42.79°N, 112.85°W
Report Text: KPIH 220953Z AUTO 21014G22KT 10SM SCT050 BKN070 OVC090 05/M03 A2987 RMK AO2 PK WND 19026/0943 WSHFT 0859 SLP115 T00501033
Loading
Personal Weather Stations






























Interactive Weather Map New forecast layout! Learn more

10-Day Weather Forecast

Advertisements
Track Severe Weather on mobile